Time;durP1;ratioP1;P1;durP2;ratioP2;P2;SDS_P1;SDS_P2;PMS_P1;PMS_P2;Temp;Humidity;BMP_temperature;BMP_pressure;BME280_temperature;BME280_humidity;BME280_pressure;Samples;Min_cycle;Max_cycle;Signal;HPM_P1;HPM_P2
2022/12/01 00:01:01;;;;;;;95.05;37.85;;;;;;;-0.45;98.90;100475.13;8428260;28;20044;-75
2022/12/01 00:05:03;;;;;;;92.15;38.38;;;;;;;-0.39;98.92;100477.97;8428035;28;20047;-75
2022/12/01 00:13:23;;;;;;;81.70;36.92;;;;;;;-0.33;98.71;100472.69;8416559;28;20055;-74
2022/12/01 00:17:24;;;;;;;81.85;35.83;;;;;;;-0.35;98.41;100471.25;8427507;28;20127;-74
2022/12/01 00:21:26;;;;;;;86.53;36.17;;;;;;;-0.34;98.71;100473.69;8414018;28;20044;-75
2022/12/01 00:25:27;;;;;;;82.25;35.97;;;;;;;-0.34;98.58;100480.84;8426662;28;20509;-75
2022/12/01 00:29:28;;;;;;;88.95;37.28;;;;;;;-0.33;98.96;100478.00;8418801;28;20037;-75
2022/12/01 00:33:29;;;;;;;86.68;35.88;;;;;;;-0.28;98.63;100480.03;8427842;28;20079;-76
2022/12/01 00:37:31;;;;;;;84.10;37.63;;;;;;;-0.21;98.22;100480.84;8421811;28;20056;-75
2022/12/01 00:41:32;;;;;;;84.72;36.47;;;;;;;-0.22;97.97;100479.22;8419410;28;20135;-74
2022/12/01 00:45:33;;;;;;;82.28;35.75;;;;;;;-0.26;98.36;100483.28;8427233;28;20052;-75
2022/12/01 00:49:34;;;;;;;81.38;35.15;;;;;;;-0.29;98.49;100473.09;8426200;28;20448;-75
2022/12/01 00:53:35;;;;;;;87.00;37.10;;;;;;;-0.23;98.29;100472.25;8425586;28;20032;-75
2022/12/01 00:57:36;;;;;;;92.38;36.08;;;;;;;-0.24;98.48;100475.94;8430533;28;20052;-74
2022/12/01 01:01:37;;;;;;;88.20;36.38;;;;;;;-0.23;98.43;100472.25;8429306;28;20410;-75
2022/12/01 01:05:39;;;;;;;89.18;37.35;;;;;;;-0.22;98.17;100468.59;8428087;28;20113;-74
2022/12/01 01:09:40;;;;;;;90.35;37.05;;;;;;;-0.24;98.40;100465.31;8432573;28;20493;-74
2022/12/01 01:13:41;;;;;;;87.20;35.90;;;;;;;-0.25;98.60;100463.69;8396876;28;20039;-74
2022/12/01 01:17:42;;;;;;;84.53;35.72;;;;;;;-0.25;98.13;100466.34;8432535;28;20044;-75
2022/12/01 01:21:43;;;;;;;85.70;35.65;;;;;;;-0.25;98.48;100458.38;8432110;28;20044;-75
2022/12/01 01:25:44;;;;;;;79.60;34.78;;;;;;;-0.24;98.47;100454.69;8429474;28;20047;-75
2022/12/01 01:29:45;;;;;;;85.85;33.95;;;;;;;-0.28;98.45;100453.47;8432134;28;20044;-74
2022/12/01 01:33:46;;;;;;;82.05;35.30;;;;;;;-0.27;98.80;100460.44;8428088;28;20052;-75
2022/12/01 01:37:48;;;;;;;81.70;34.22;;;;;;;-0.26;98.74;100462.03;8432459;28;20050;-74
2022/12/01 01:41:50;;;;;;;89.03;36.15;;;;;;;-0.28;98.75;100443.69;8418667;28;20048;-75
2022/12/01 01:45:50;;;;;;;81.13;33.80;;;;;;;-0.25;98.88;100453.06;8379531;28;20052;-75
2022/12/01 01:49:54;;;;;;;81.47;34.53;;;;;;;-0.24;98.83;100444.06;8397868;28;20392;-75
2022/12/01 01:53:59;;;;;;;76.40;32.85;;;;;;;-0.22;98.50;100450.00;8397964;28;20127;-74
2022/12/01 01:58:02;;;;;;;87.95;36.30;;;;;;;-0.23;98.67;100449.19;8396701;28;20052;-74
2022/12/01 02:02:08;;;;;;;90.15;36.30;;;;;;;-0.24;98.48;100444.06;8396146;28;20044;-75
2022/12/01 02:06:09;;;;;;;81.97;34.35;;;;;;;-0.23;98.68;100435.09;8386275;28;20044;-74
2022/12/01 02:10:12;;;;;;;86.38;34.55;;;;;;;-0.23;99.03;100435.09;8392220;28;20068;-75
2022/12/01 02:14:48;;;;;;;96.63;35.90;;;;;;;-0.22;98.72;100436.75;8394294;28;20051;-74
2022/12/01 02:18:53;;;;;;;91.63;36.60;;;;;;;-0.22;98.64;100434.09;8393385;28;20471;-75
2022/12/01 02:23:25;;;;;;;87.20;37.05;;;;;;;-0.23;98.74;100435.09;8396580;28;20048;-74
2022/12/01 02:27:35;;;;;;;91.28;35.97;;;;;;;-0.18;98.92;100432.63;8393697;28;20053;-74
2022/12/01 02:31:46;;;;;;;95.47;37.35;;;;;;;-0.18;98.32;100432.63;8341647;28;20072;-74
2022/12/01 02:36:19;;;;;;;88.63;37.53;;;;;;;-0.18;98.88;100427.34;8384651;28;20045;-74
2022/12/01 02:40:44;;;;;;;87.38;35.00;;;;;;;-0.17;98.63;100428.97;8393807;28;20049;-75
2022/12/01 02:44:46;;;;;;;90.40;35.33;;;;;;;-0.17;98.41;100428.97;8411954;28;20501;-75
2022/12/01 02:48:48;;;;;;;82.32;35.65;;;;;;;-0.18;98.26;100427.34;8427541;28;20051;-74
2022/12/01 02:52:49;;;;;;;83.45;35.92;;;;;;;-0.18;98.62;100416.72;8429409;28;20047;-74
2022/12/01 02:56:52;;;;;;;82.55;34.83;;;;;;;-0.22;99.00;100416.31;8398022;28;20413;-74
2022/12/01 03:01:26;;;;;;;91.57;35.72;;;;;;;-0.22;98.67;100418.16;8429731;28;20048;-74
2022/12/01 03:05:51;;;;;;;103.57;37.95;;;;;;;-0.20;98.30;100418.75;8259687;28;20536;-75
2022/12/01 03:10:16;;;;;;;99.30;35.72;;;;;;;-0.21;98.24;100406.50;8243727;28;20543;-74
2022/12/01 03:14:17;;;;;;;99.20;36.67;;;;;;;-0.19;98.10;100404.44;8228185;28;20539;-74
2022/12/01 03:18:28;;;;;;;93.45;34.13;;;;;;;-0.22;98.54;100400.38;8257680;28;20042;-74
2022/12/01 03:22:35;;;;;;;92.93;37.35;;;;;;;-0.21;98.50;100395.91;8259395;28;20054;-75
2022/12/01 03:26:37;;;;;;;92.43;36.08;;;;;;;-0.19;98.44;100399.16;8259946;28;20053;-74
2022/12/01 03:30:38;;;;;;;82.55;35.22;;;;;;;-0.17;98.30;100402.41;8262739;28;20054;-75
2022/12/01 03:34:40;;;;;;;79.43;34.35;;;;;;;-0.17;98.22;100397.09;8259392;28;20058;-75
2022/12/01 03:38:44;;;;;;;82.03;33.35;;;;;;;-0.21;98.29;100395.91;8253017;28;20468;-75
2022/12/01 03:42:51;;;;;;;85.97;33.30;;;;;;;-0.23;98.67;100403.25;8384463;28;20529;-74
2022/12/01 03:46:52;;;;;;;89.07;34.83;;;;;;;-0.28;98.57;100400.38;8416027;28;20048;-74
2022/12/01 03:51:05;;;;;;;81.55;33.60;;;;;;;-0.25;98.96;100405.28;8426767;28;20048;-75
2022/12/01 03:55:21;;;;;;;90.25;35.47;;;;;;;-0.22;98.89;100404.88;8427711;28;20067;-75
2022/12/01 03:59:24;;;;;;;86.45;36.25;;;;;;;-0.19;98.46;100404.44;8420912;28;20051;-74
2022/12/01 04:03:25;;;;;;;90.75;38.83;;;;;;;-0.23;98.70;100403.25;8408859;28;20438;-75
2022/12/01 04:07:26;;;;;;;82.45;35.00;;;;;;;-0.22;98.63;100404.88;8427380;28;20055;-74
2022/12/01 04:15:51;;;;;;;110.88;42.20;;;;;;;-0.22;98.62;100404.88;8427502;28;20048;-75
2022/12/01 04:19:52;;;;;;;119.53;46.40;;;;;;;-0.23;98.74;100397.94;8427227;28;20051;-75
2022/12/01 04:23:59;;;;;;;113.18;45.83;;;;;;;-0.21;98.93;100401.22;8374912;28;20048;-75
2022/12/01 04:28:00;;;;;;;97.82;41.33;;;;;;;-0.27;98.64;100408.16;8380424;28;20052;-74
2022/12/01 04:32:01;;;;;;;105.78;43.67;;;;;;;-0.24;98.90;100401.59;8429941;28;20132;-74
2022/12/01 04:36:02;;;;;;;102.50;41.50;;;;;;;-0.23;98.69;100397.94;8434005;28;20040;-74
2022/12/01 04:40:03;;;;;;;92.35;39.15;;;;;;;-0.24;99.04;100401.59;8433218;28;20044;-75
2022/12/01 04:44:04;;;;;;;92.10;38.38;;;;;;;-0.22;98.97;100399.56;8420594;28;20048;-74
2022/12/01 04:48:05;;;;;;;109.97;42.97;;;;;;;-0.25;99.03;100400.78;8421041;28;20493;-74
2022/12/01 04:52:06;;;;;;;96.75;37.28;;;;;;;-0.25;99.26;100406.09;8432897;28;20051;-74
2022/12/01 04:56:07;;;;;;;101.10;41.20;;;;;;;-0.22;99.16;100404.88;8432298;28;20039;-74
2022/12/01 05:00:12;;;;;;;106.05;43.22;;;;;;;-0.19;99.08;100409.75;8433020;28;20047;-75
2022/12/01 05:04:13;;;;;;;111.38;45.13;;;;;;;-0.17;99.01;100413.03;8431987;28;20052;-74
2022/12/01 05:08:14;;;;;;;97.07;38.10;;;;;;;-0.21;99.28;100417.13;8432433;28;20055;-74
2022/12/01 05:12:16;;;;;;;112.82;43.65;;;;;;;-0.19;99.21;100409.75;8380379;28;20401;-74
2022/12/01 05:16:20;;;;;;;98.80;39.85;;;;;;;-0.18;99.32;100417.53;8432129;28;20040;-75
2022/12/01 05:24:42;;;;;;;92.82;38.50;;;;;;;-0.15;99.46;100411.78;8431579;28;20063;-75
2022/12/01 05:28:43;;;;;;;89.53;37.67;;;;;;;-0.15;99.16;100405.66;8430954;28;20577;-75
2022/12/01 05:32:44;;;;;;;92.30;39.00;;;;;;;-0.12;99.66;100410.56;8432367;28;20055;-75
2022/12/01 05:36:44;;;;;;;107.72;43.25;;;;;;;-0.10;99.54;100413.81;8432166;28;20036;-75
2022/12/01 05:40:53;;;;;;;104.40;41.40;;;;;;;-0.08;99.23;100417.09;8395666;28;20056;-74
2022/12/01 05:44:54;;;;;;;88.78;36.55;;;;;;;-0.12;99.58;100413.22;8424366;28;20151;-75
2022/12/01 05:48:55;;;;;;;93.32;38.17;;;;;;;-0.12;99.47;100405.25;8425428;28;20048;-74
2022/12/01 05:52:56;;;;;;;102.65;38.15;;;;;;;-0.09;99.32;100416.28;8394520;28;20097;-74
2022/12/01 05:56:57;;;;;;;96.80;39.50;;;;;;;-0.08;99.58;100417.09;8431404;28;20414;-75
2022/12/01 06:00:58;;;;;;;91.28;38.95;;;;;;;-0.06;99.51;100420.38;8431044;28;20127;-75
2022/12/01 06:05:00;;;;;;;94.55;39.53;;;;;;;-0.05;99.36;100414.00;8426434;28;20045;-75
2022/12/01 06:09:01;;;;;;;93.35;40.40;;;;;;;-0.09;99.13;100420.78;8427169;28;20426;-74
2022/12/01 06:13:02;;;;;;;105.20;42.90;;;;;;;-0.08;99.36;100422.41;8430390;28;20051;-75
2022/12/01 06:17:03;;;;;;;113.18;45.38;;;;;;;-0.04;99.25;100427.09;8412450;28;20472;-75
2022/12/01 06:21:05;;;;;;;111.80;46.00;;;;;;;-0.03;99.58;100425.25;8430774;28;20444;-75
2022/12/01 06:25:07;;;;;;;110.03;42.58;;;;;;;-0.01;99.55;100433.84;8431277;28;20044;-74
2022/12/01 06:29:09;;;;;;;106.03;41.97;;;;;;;0.01;99.60;100431.78;8430693;28;20099;-75
2022/12/01 06:33:10;;;;;;;139.75;53.00;;;;;;;-0.01;99.57;100423.22;8393867;28;20043;-74
2022/12/01 06:37:14;;;;;;;107.88;44.15;;;;;;;-0.03;99.44;100425.25;8429359;28;20047;-75
2022/12/01 06:41:15;;;;;;;106.53;45.78;;;;;;;0.01;99.43;100426.47;8430299;28;20055;-75
2022/12/01 06:45:16;;;;;;;105.78;44.03;;;;;;;0.02;99.28;100433.41;8429592;28;20052;-74
2022/12/01 06:49:17;;;;;;;94.93;39.30;;;;;;;0.00;99.48;100438.13;8428967;28;20047;-74
2022/12/01 06:53:18;;;;;;;96.40;38.90;;;;;;;-0.03;99.87;100430.56;8429456;28;20058;-75
2022/12/01 06:57:19;;;;;;;94.32;38.47;;;;;;;0.00;99.79;100424.84;8421906;28;20044;-74
2022/12/01 07:01:20;;;;;;;100.85;39.83;;;;;;;0.00;99.70;100425.66;8411667;28;20379;-74
2022/12/01 07:05:21;;;;;;;92.30;38.45;;;;;;;0.02;99.99;100428.09;8394007;28;20047;-74
2022/12/01 07:09:23;;;;;;;86.68;38.25;;;;;;;0.02;99.79;100433.41;8429215;28;20097;-74
2022/12/01 07:13:23;;;;;;;98.97;40.70;;;;;;;0.03;99.72;100435.06;8429124;28;20092;-75
2022/12/01 07:17:25;;;;;;;102.00;40.47;;;;;;;0.07;99.93;100433.59;8376687;28;20079;-74
2022/12/01 07:21:25;;;;;;;92.07;38.33;;;;;;;0.14;99.89;100437.06;8421966;28;20151;-75
2022/12/01 07:25:26;;;;;;;131.45;48.53;;;;;;;0.16;99.73;100440.31;8428193;28;20140;-74
2022/12/01 07:29:27;;;;;;;102.53;40.00;;;;;;;0.19;99.35;100439.91;8350689;28;20391;-75
2022/12/01 07:33:28;;;;;;;94.15;38.20;;;;;;;0.24;99.53;100448.09;8428355;28;20041;-75
2022/12/01 07:37:29;;;;;;;104.68;40.28;;;;;;;0.27;99.13;100444.19;8423178;28;20522;-75
2022/12/01 07:41:30;;;;;;;90.85;38.97;;;;;;;0.27;98.95;100437.03;8428434;28;20161;-74
2022/12/01 07:45:31;;;;;;;95.10;39.25;;;;;;;0.31;99.32;100438.25;8375386;28;20079;-75
2022/12/01 07:49:33;;;;;;;97.03;38.47;;;;;;;0.33;99.34;100444.16;8428043;28;20106;-74
2022/12/01 07:53:34;;;;;;;96.10;37.90;;;;;;;0.39;99.27;100445.97;8422130;28;20048;-74
2022/12/01 07:57:35;;;;;;;118.93;43.72;;;;;;;0.42;98.90;100450.09;8392472;28;20044;-74
2022/12/01 08:01:36;;;;;;;106.10;42.92;;;;;;;0.43;99.33;100447.19;8426420;28;20119;-74
2022/12/01 08:05:37;;;;;;;94.22;38.17;;;;;;;0.40;99.05;100442.31;8408077;28;20560;-74
2022/12/01 08:09:38;;;;;;;92.32;38.50;;;;;;;0.46;98.87;100451.28;8414164;28;20059;-74
2022/12/01 08:13:40;;;;;;;96.35;38.90;;;;;;;0.51;98.64;100458.63;8412020;28;20044;-75
2022/12/01 08:17:41;;;;;;;100.72;41.58;;;;;;;0.55;98.74;100465.16;8417244;28;20055;-74
2022/12/01 08:21:42;;;;;;;95.13;38.58;;;;;;;0.62;98.76;100461.44;8421572;28;20037;-74
2022/12/01 08:25:43;;;;;;;87.53;36.10;;;;;;;0.68;98.64;100459.78;8423463;28;20055;-74
2022/12/01 08:29:44;;;;;;;95.85;38.90;;;;;;;0.74;98.33;100458.94;8370208;28;20100;-73
2022/12/01 08:33:47;;;;;;;87.82;36.75;;;;;;;0.82;98.37;100461.34;8423291;28;20048;-74
2022/12/01 08:37:50;;;;;;;87.93;37.15;;;;;;;0.88;97.82;100460.50;8417970;28;20135;-75
2022/12/01 08:41:52;;;;;;;101.07;40.45;;;;;;;0.92;97.93;100456.38;8426978;28;20048;-74
2022/12/01 08:45:58;;;;;;;115.45;43.22;;;;;;;1.00;97.71;100453.50;8418208;28;20178;-75
2022/12/01 08:49:59;;;;;;;99.25;40.20;;;;;;;1.06;97.52;100459.78;8424504;28;20048;-74
2022/12/01 08:54:00;;;;;;;97.15;39.10;;;;;;;1.08;97.88;100461.22;8413070;28;20173;-74
2022/12/01 08:58:01;;;;;;;85.55;36.72;;;;;;;1.13;97.42;100464.03;8424930;28;20040;-75
2022/12/01 09:02:02;;;;;;;99.63;42.97;;;;;;;1.22;97.13;100472.56;8412018;28;20105;-75
2022/12/01 09:06:15;;;;;;;89.85;39.00;;;;;;;1.19;97.14;100473.84;8424381;28;20123;-75
2022/12/01 09:10:16;;;;;;;89.15;38.78;;;;;;;1.20;97.09;100470.16;8416615;28;20074;-74
2022/12/01 09:14:19;;;;;;;89.75;37.28;;;;;;;1.16;97.30;100468.91;8381724;28;20414;-75
2022/12/01 09:18:20;;;;;;;88.45;37.30;;;;;;;1.18;97.21;100466.88;8421661;28;20048;-75
2022/12/01 09:22:21;;;;;;;92.88;37.90;;;;;;;1.18;97.44;100456.22;8432708;28;20040;-74
2022/12/01 09:26:22;;;;;;;89.28;36.88;;;;;;;1.20;97.14;100454.19;8432674;28;20519;-75
2022/12/01 09:30:23;;;;;;;89.35;36.92;;;;;;;1.20;96.96;100446.19;8431958;28;20122;-74
2022/12/01 09:34:25;;;;;;;83.88;36.92;;;;;;;1.20;97.06;100453.38;8395777;28;20106;-74
2022/12/01 09:38:31;;;;;;;93.20;36.30;;;;;;;1.22;96.75;100452.09;8422891;28;20445;-74
2022/12/01 09:42:32;;;;;;;86.75;37.33;;;;;;;1.25;97.12;100451.69;8378764;28;20438;-74
2022/12/01 09:46:40;;;;;;;93.35;38.92;;;;;;;1.26;96.83;100441.88;8342560;28;1316996;-73
2022/12/01 09:50:42;;;;;;;240.43;84.53;;;;;;;1.31;96.98;100449.19;8432959;28;20051;-74
2022/12/01 09:54:43;;;;;;;147.05;55.42;;;;;;;1.35;96.95;100429.09;8420218;28;20071;-76
2022/12/01 09:58:46;;;;;;;104.35;40.97;;;;;;;1.32;96.95;100429.53;8432624;28;20054;-75
2022/12/01 10:03:09;;;;;;;104.85;40.53;;;;;;;1.34;96.92;100435.44;8416369;28;20089;-75
2022/12/01 10:07:32;;;;;;;94.72;39.00;;;;;;;1.34;96.71;100427.47;8410100;28;20056;-75
2022/12/01 10:11:35;;;;;;;101.28;39.10;;;;;;;1.37;97.00;100427.03;8414429;28;20048;-74
2022/12/01 10:16:12;;;;;;;88.22;37.75;;;;;;;1.41;96.98;100417.59;8328812;28;20045;-74
2022/12/01 10:20:45;;;;;;;81.82;36.05;;;;;;;1.44;96.67;100417.16;8283921;28;20163;-75
2022/12/01 10:25:07;;;;;;;87.53;36.85;;;;;;;1.40;96.86;100415.94;8156656;29;20052;-72
2022/12/01 10:29:45;;;;;;;103.78;41.85;;;;;;;1.40;96.84;100415.94;8149977;29;20051;-74
2022/12/01 10:34:02;;;;;;;163.48;68.28;;;;;;;1.41;96.78;100412.25;8162991;29;20506;-75
2022/12/01 10:38:06;;;;;;;104.25;41.55;;;;;;;1.44;96.92;100406.50;8167851;29;20051;-76
2022/12/01 10:42:14;;;;;;;89.95;38.75;;;;;;;1.51;96.64;100407.25;8167823;29;20151;-75
2022/12/01 10:46:44;;;;;;;106.72;41.95;;;;;;;1.53;96.75;100400.69;8200258;28;20575;-74
2022/12/01 10:50:54;;;;;;;88.45;36.85;;;;;;;1.56;96.46;100394.13;8251561;28;20133;-75
2022/12/01 10:54:55;;;;;;;81.78;36.60;;;;;;;1.52;96.64;100392.94;8263389;28;20428;-74
2022/12/01 10:59:02;;;;;;;88.63;37.88;;;;;;;1.54;96.51;100396.16;8305314;28;20056;-75
2022/12/01 11:03:03;;;;;;;81.65;36.13;;;;;;;1.53;96.44;100399.88;8396355;28;20048;-74
2022/12/01 11:07:05;;;;;;;77.43;34.83;;;;;;;1.54;96.91;100396.16;8431692;28;20058;-74
2022/12/01 11:11:26;;;;;;;86.50;37.60;;;;;;;1.54;96.71;100390.84;8432116;28;20048;-75
2022/12/01 11:15:30;;;;;;;130.43;51.55;;;;;;;1.60;96.35;100389.97;8431246;28;20050;-74
2022/12/01 11:19:33;;;;;;;110.75;46.30;;;;;;;1.59;96.67;100388.34;8432264;28;20434;-74
2022/12/01 11:23:36;;;;;;;79.60;35.75;;;;;;;1.59;96.71;100391.81;8408291;28;20044;-74
2022/12/01 11:27:49;;;;;;;90.53;38.10;;;;;;;1.58;96.68;100387.56;8383221;28;20520;-73
2022/12/01 11:31:51;;;;;;;86.97;36.38;;;;;;;1.61;96.79;100396.94;8430913;28;20050;-74
2022/12/01 11:35:52;;;;;;;86.72;38.22;;;;;;;1.58;97.06;100384.06;8430315;28;20048;-75
2022/12/01 11:39:54;;;;;;;87.07;37.55;;;;;;;1.62;97.29;100379.94;8378045;28;20052;-75
2022/12/01 11:43:55;;;;;;;114.18;46.63;;;;;;;1.64;96.73;100378.66;8399367;28;20062;-75
2022/12/01 11:48:27;;;;;;;108.20;44.70;;;;;;;1.66;97.08;100378.44;8395276;28;20503;-74
2022/12/01 11:52:29;;;;;;;98.25;41.42;;;;;;;1.68;96.85;100376.41;8261531;28;20053;-74
2022/12/01 11:56:30;;;;;;;84.25;37.67;;;;;;;1.68;97.02;100376.41;8261157;28;20412;-75
2022/12/01 12:00:58;;;;;;;83.38;36.33;;;;;;;1.71;96.78;100381.25;8262198;28;20049;-74
2022/12/01 12:05:55;;;;;;;67.57;31.75;;;;;;;1.71;96.50;100381.25;8165033;28;20089;-74
2022/12/01 12:10:08;;;;;;;67.00;31.25;;;;;;;1.72;96.70;100382.91;8119298;29;20048;-75
2022/12/01 12:14:47;;;;;;;57.78;26.60;;;;;;;1.73;96.71;100379.22;8134055;29;20052;-75
2022/12/01 12:18:54;;;;;;;64.72;30.15;;;;;;;1.76;96.34;100384.09;8130904;29;20056;-75
2022/12/01 12:23:17;;;;;;;52.42;25.25;;;;;;;1.76;96.06;100378.75;8134570;29;20116;-74
2022/12/01 12:27:42;;;;;;;45.38;23.98;;;;;;;1.75;94.83;100386.97;8159410;28;20074;-74
2022/12/01 12:31:55;;;;;;;42.83;22.80;;;;;;;1.75;94.48;100381.63;8228338;28;20055;-74
2022/12/01 12:36:23;;;;;;;45.70;22.30;;;;;;;1.77;94.34;100379.56;8227970;28;20150;-74
2022/12/01 12:40:42;;;;;;;48.22;22.70;;;;;;;1.76;94.49;100377.94;8313356;28;20143;-75
2022/12/01 12:44:56;;;;;;;52.83;25.17;;;;;;;1.72;94.46;100377.56;8359241;28;20049;-75
2022/12/01 12:49:13;;;;;;;46.15;22.52;;;;;;;1.73;94.77;100376.53;8414800;28;20456;-75
2022/12/01 12:53:18;;;;;;;43.97;21.42;;;;;;;1.74;94.54;100375.53;8413263;28;20044;-75
2022/12/01 12:57:36;;;;;;;40.38;20.85;;;;;;;1.70;94.67;100369.78;8396457;28;20040;-74
2022/12/01 13:01:42;;;;;;;41.40;20.73;;;;;;;1.73;94.12;100376.53;8431981;28;20133;-74
2022/12/01 13:06:00;;;;;;;41.10;20.25;;;;;;;1.71;94.06;100381.25;8416639;28;20113;-74
2022/12/01 13:10:22;;;;;;;;;;;;;;;1.71;93.71;100386.59;8435233;28;20052;-75
2022/12/01 13:14:26;;;;;;;26.70;12.73;;;;;;;1.72;92.75;100382.91;8434966;28;20370;-74
2022/12/01 13:18:35;;;;;;;28.98;15.13;;;;;;;1.70;92.67;100379.63;8365427;28;20095;-75
2022/12/01 13:22:36;;;;;;;29.70;15.32;;;;;;;1.68;93.06;100381.72;8365632;28;20056;-75
2022/12/01 13:26:38;;;;;;;29.58;14.27;;;;;;;1.69;92.83;100389.47;8365184;28;20060;-75
2022/12/01 13:30:39;;;;;;;29.35;14.63;;;;;;;1.69;92.42;100383.34;8365237;28;20511;-75
2022/12/01 13:34:42;;;;;;;29.83;14.77;;;;;;;1.70;93.03;100384.97;8364554;28;20049;-76
2022/12/01 13:39:00;;;;;;;35.00;14.98;;;;;;;1.70;92.78;100384.97;8360864;28;20053;-75
2022/12/01 13:43:05;;;;;;;38.28;17.52;;;;;;;1.69;93.08;100391.34;8361112;28;20367;-75
2022/12/01 13:47:09;;;;;;;33.33;18.20;;;;;;;1.68;93.22;100387.03;8339915;28;20044;-75
2022/12/01 13:51:10;;;;;;;35.25;18.67;;;;;;;1.70;93.08;100384.97;8434806;28;20130;-76
2022/12/01 13:55:11;;;;;;;35.03;19.70;;;;;;;1.70;93.00;100390.28;8434246;28;20051;-75
2022/12/01 13:59:57;;;;;;;32.05;17.48;;;;;;;1.68;92.94;100389.72;8349247;28;20044;-76
2022/12/01 14:04:01;;;;;;;30.85;15.40;;;;;;;1.69;92.71;100384.13;8422965;28;20090;-76
2022/12/01 14:08:24;;;;;;;27.42;13.70;;;;;;;1.67;92.79;100390.75;8433976;28;20486;-75
2022/12/01 14:12:30;;;;;;;27.10;14.75;;;;;;;1.67;92.85;100390.75;8398120;28;20051;-75
2022/12/01 14:17:04;;;;;;;26.63;14.48;;;;;;;1.67;93.11;100382.75;8370985;28;20052;-75
2022/12/01 14:21:09;;;;;;;28.95;15.05;;;;;;;1.64;93.10;100385.84;8239033;28;20050;-75
2022/12/01 14:25:18;;;;;;;33.33;17.92;;;;;;;1.64;92.98;100391.16;8263037;28;20054;-75
2022/12/01 14:29:37;;;;;;;48.58;21.85;;;;;;;1.65;93.04;100392.78;8259728;28;20702;-75
2022/12/01 14:33:46;;;;;;;40.50;20.02;;;;;;;1.64;93.13;100391.16;8264348;28;20054;-75
2022/12/01 14:37:48;;;;;;;33.60;15.77;;;;;;;1.66;92.57;100378.44;8267615;28;20499;-75
2022/12/01 14:41:54;;;;;;;33.25;15.77;;;;;;;1.66;92.40;100378.44;8245836;28;20062;-75
2022/12/01 14:46:05;;;;;;;38.45;18.88;;;;;;;1.64;92.63;100375.19;8263834;28;20542;-75
2022/12/01 14:50:20;;;;;;;40.38;19.38;;;;;;;1.61;92.61;100381.78;8254157;28;20794;-75
2022/12/01 14:54:31;;;;;;;32.60;15.98;;;;;;;1.62;93.02;100379.94;8274173;28;20475;-75
2022/12/01 14:58:33;;;;;;;31.85;15.38;;;;;;;1.62;92.99;100371.94;8411989;28;20048;-74
2022/12/01 15:02:42;;;;;;;30.75;16.65;;;;;;;1.62;92.67;100377.28;8395214;28;20074;-75
2022/12/01 15:06:45;;;;;;;34.78;17.15;;;;;;;1.60;92.79;100374.00;8411384;28;20537;-74
2022/12/01 15:10:52;;;;;;;30.77;16.17;;;;;;;1.57;92.71;100379.78;8429721;28;20044;-74
2022/12/01 15:14:54;;;;;;;31.57;16.43;;;;;;;1.60;92.66;100374.00;8429714;28;20052;-75
2022/12/01 15:18:55;;;;;;;30.13;16.17;;;;;;;1.60;92.64;100374.00;8431506;28;20102;-75
2022/12/01 15:22:58;;;;;;;38.97;19.52;;;;;;;1.61;92.88;100380.97;8430497;28;20036;-75
2022/12/01 15:26:59;;;;;;;30.73;16.58;;;;;;;1.59;93.19;100377.69;8430632;28;20473;-75
2022/12/01 15:31:08;;;;;;;29.08;15.75;;;;;;;1.59;92.96;100361.72;8431227;28;20478;-75
2022/12/01 15:35:19;;;;;;;;;;;;;;;1.60;92.83;100363.34;8374577;28;20055;-74
2022/12/01 15:39:48;;;;;;;37.65;19.50;;;;;;;1.61;92.72;100367.66;8420059;28;19920;-74
2022/12/01 15:44:02;;;;;;;32.58;17.67;;;;;;;1.61;92.15;100364.97;8240188;28;20050;-75
2022/12/01 15:48:14;;;;;;;40.75;17.88;;;;;;;1.59;92.33;100367.03;8261083;28;20117;-75
2022/12/01 15:52:17;;;;;;;36.65;18.35;;;;;;;1.58;92.41;100366.25;8195753;28;20063;-74
2022/12/01 15:56:32;;;;;;;30.55;16.80;;;;;;;1.59;92.77;100367.03;8170626;28;20540;-76
2022/12/01 16:00:34;;;;;;;36.35;18.35;;;;;;;1.60;92.38;100374.00;8218351;28;20502;-76
2022/12/01 16:04:35;;;;;;;33.33;16.98;;;;;;;1.58;92.25;100370.75;8231004;28;20047;-76
2022/12/01 16:08:36;;;;;;;31.55;16.42;;;;;;;1.59;92.49;100367.03;8212919;28;20087;-76
2022/12/01 16:12:39;;;;;;;33.22;16.65;;;;;;;1.59;92.50;100367.03;8236735;28;20109;-76
2022/12/01 16:16:45;;;;;;;32.15;15.85;;;;;;;1.57;92.33;100369.13;8211573;28;20043;-76
2022/12/01 16:20:49;;;;;;;31.00;16.42;;;;;;;1.57;92.29;100374.44;8325695;28;20518;-76
2022/12/01 16:24:54;;;;;;;29.13;14.60;;;;;;;1.55;92.04;100376.50;8357584;28;20484;-76
2022/12/01 16:28:55;;;;;;;24.40;13.52;;;;;;;1.54;91.89;100380.19;8367600;28;20202;-75
2022/12/01 16:33:23;;;;;;;28.95;14.55;;;;;;;1.51;92.08;100375.31;8369332;28;20049;-75
2022/12/01 16:37:26;;;;;;;25.25;14.32;;;;;;;1.50;92.00;100373.69;8371476;28;20078;-75
2022/12/01 16:41:31;;;;;;;29.00;13.75;;;;;;;1.47;92.21;100379.47;8367758;28;20049;-76
2022/12/01 16:45:32;;;;;;;22.10;12.65;;;;;;;1.54;91.45;100374.88;8377720;28;20045;-76
2022/12/01 16:49:33;;;;;;;23.35;12.88;;;;;;;1.54;91.76;100374.88;8435286;28;20048;-76
2022/12/01 16:53:35;;;;;;;25.02;13.75;;;;;;;1.52;91.31;100376.94;8438524;28;20044;-76
2022/12/01 16:57:36;;;;;;;24.73;14.60;;;;;;;1.52;91.13;100371.63;8380664;28;20072;-76
2022/12/01 17:01:38;;;;;;;27.10;14.23;;;;;;;1.51;91.32;100375.31;8423430;28;20117;-75
2022/12/01 17:05:41;;;;;;;26.33;14.13;;;;;;;1.51;90.92;100380.63;8436734;28;20048;-76
2022/12/01 17:10:04;;;;;;;27.42;14.85;;;;;;;1.47;91.20;100382.13;8318324;28;20081;-75
2022/12/01 17:14:10;;;;;;;27.23;14.18;;;;;;;1.48;91.14;100381.09;8281915;28;20520;-76
2022/12/01 17:18:18;;;;;;;31.43;15.73;;;;;;;1.45;90.83;100381.50;8270491;28;20049;-77
2022/12/01 17:22:20;;;;;;;30.17;16.80;;;;;;;1.44;90.81;100385.19;8336168;28;20057;-74
2022/12/01 17:26:22;;;;;;;30.48;16.08;;;;;;;1.46;90.29;100380.47;8332813;28;20057;-76
2022/12/01 17:30:23;;;;;;;29.60;16.40;;;;;;;1.47;90.41;100379.47;8299195;28;20065;-76
2022/12/01 17:34:24;;;;;;;33.58;17.00;;;;;;;1.48;90.13;100381.88;8329542;28;20056;-76
2022/12/01 17:38:25;;;;;;;37.20;21.00;;;;;;;1.45;89.51;100373.53;8314480;28;20449;-76
2022/12/01 17:42:26;;;;;;;30.10;16.83;;;;;;;1.48;89.65;100381.09;8314657;28;20177;-76
2022/12/01 17:46:29;;;;;;;36.30;16.75;;;;;;;1.49;88.92;100372.88;8333614;28;20061;-77
2022/12/01 17:50:29;;;;;;;35.95;19.02;;;;;;;1.51;88.52;100370.81;8317391;28;20064;-76
2022/12/01 17:54:31;;;;;;;31.63;17.50;;;;;;;1.46;88.41;100373.31;8295265;28;20911;-76
2022/12/01 17:58:32;;;;;;;31.33;16.88;;;;;;;1.48;88.75;100370.44;8346919;28;20040;-76
2022/12/01 18:02:33;;;;;;;39.13;20.33;;;;;;;1.47;88.56;100368.81;8403483;28;20044;-75
2022/12/01 18:06:34;;;;;;;38.65;21.48;;;;;;;1.46;88.78;100369.84;8400843;28;20052;-76
2022/12/01 18:10:35;;;;;;;44.90;23.98;;;;;;;1.45;88.47;100370.88;8385055;28;20094;-76
2022/12/01 18:14:37;;;;;;;41.97;21.63;;;;;;;1.38;88.86;100375.41;8402602;28;20053;-76
2022/12/01 18:18:38;;;;;;;64.95;28.70;;;;;;;1.39;89.22;100377.06;8402690;28;20486;-77
2022/12/01 18:22:39;;;;;;;51.65;26.88;;;;;;;1.39;89.24;100377.88;8402593;28;20055;-76
2022/12/01 18:26:41;;;;;;;49.00;27.15;;;;;;;1.42;89.66;100371.31;8391618;28;20086;-77
2022/12/01 18:30:42;;;;;;;46.92;24.90;;;;;;;1.44;89.48;100369.22;8397756;28;20071;-76
2022/12/01 18:34:43;;;;;;;47.00;24.08;;;;;;;1.45;89.77;100377.00;8396778;28;20048;-75
2022/12/01 18:38:46;;;;;;;46.03;24.58;;;;;;;1.42;89.59;100377.44;8396033;28;20067;-76
2022/12/01 18:42:49;;;;;;;45.10;24.30;;;;;;;1.42;89.58;100371.31;8396282;28;20040;-76
2022/12/01 18:46:50;;;;;;;48.33;25.02;;;;;;;1.41;89.62;100378.47;8409465;28;20060;-78
2022/12/01 18:50:51;;;;;;;229.60;75.93;;;;;;;1.38;89.98;100386.06;8422989;28;20150;-76
2022/12/01 18:54:52;;;;;;;44.15;23.95;;;;;;;1.41;89.96;100390.97;8428235;28;20040;-77
2022/12/01 18:58:59;;;;;;;45.90;24.80;;;;;;;1.39;89.60;100377.88;8408209;28;20059;-76